Time;durP1;ratioP1;P1;durP2;ratioP2;P2;SDS_P1;SDS_P2;PMS_P1;PMS_P2;Temp;Humidity;BMP_temperature;BMP_pressure;BME280_temperature;BME280_humidity;BME280_pressure;Samples;Min_cycle;Max_cycle;Signal;HPM_P1;HPM_P2
2023/05/22 00:00:51;;;;;;;6.35;4.13;;;;;;;18.96;87.78;100652.91;5192140;28;20087;-73
2023/05/22 00:03:23;;;;;;;7.95;4.43;;;;;;;18.89;88.47;100650.78;5193556;28;20106;-74
2023/05/22 00:05:57;;;;;;;7.75;4.30;;;;;;;18.82;89.13;100654.81;5189700;28;20189;-73
2023/05/22 00:08:28;;;;;;;9.68;4.32;;;;;;;18.78;89.24;100648.88;5193677;28;20021;-73
2023/05/22 00:10:58;;;;;;;8.57;4.30;;;;;;;18.76;89.37;100647.28;5194061;28;20480;-74
2023/05/22 00:13:28;;;;;;;8.68;4.15;;;;;;;18.81;88.98;100645.16;5192155;28;20041;-73
2023/05/22 00:15:59;;;;;;;6.28;4.15;;;;;;;18.82;88.42;100644.22;5206056;28;20033;-74
2023/05/22 00:18:29;;;;;;;8.43;4.20;;;;;;;18.80;88.95;100652.25;5189808;28;20492;-73
2023/05/22 00:20:59;;;;;;;7.72;4.07;;;;;;;18.79;88.48;100645.25;5190145;28;20029;-74
2023/05/22 00:23:30;;;;;;;6.28;4.05;;;;;;;18.76;88.48;100642.84;5208837;28;20034;-74
2023/05/22 00:26:00;;;;;;;6.47;4.32;;;;;;;18.62;88.44;100649.16;5185644;28;20566;-73
2023/05/22 00:28:30;;;;;;;8.65;4.32;;;;;;;18.51;89.19;100652.53;5187947;28;20491;-74
2023/05/22 00:31:01;;;;;;;6.55;4.25;;;;;;;18.37;90.00;100643.81;5196842;28;20745;-74
2023/05/22 00:33:32;;;;;;;7.07;4.10;;;;;;;18.27;91.13;100638.28;5191614;28;20025;-74
2023/05/22 00:36:03;;;;;;;9.85;3.95;;;;;;;18.22;91.52;100643.00;5191262;28;20442;-72
2023/05/22 00:38:36;;;;;;;7.70;4.10;;;;;;;18.17;91.54;100650.38;5189978;28;20030;-73
2023/05/22 00:41:06;;;;;;;6.07;3.90;;;;;;;18.16;90.85;100645.22;5193515;28;20025;-73
2023/05/22 00:43:38;;;;;;;6.50;3.67;;;;;;;18.19;90.35;100645.00;5190507;28;20030;-74
2023/05/22 00:46:08;;;;;;;8.95;4.00;;;;;;;18.26;88.90;100641.00;5191849;28;20025;-73
2023/05/22 00:48:39;;;;;;;6.50;3.70;;;;;;;18.18;90.52;100641.50;5201404;28;20558;-73
2023/05/22 00:51:09;;;;;;;8.85;4.38;;;;;;;18.26;89.73;100636.56;5179214;28;20040;-74
2023/05/22 00:53:40;;;;;;;10.43;4.18;;;;;;;18.13;90.34;100638.31;5186076;28;20076;-74
2023/05/22 00:56:11;;;;;;;10.65;3.95;;;;;;;18.18;90.02;100643.31;5187942;28;20021;-74
2023/05/22 00:58:42;;;;;;;5.88;3.45;;;;;;;18.18;89.81;100643.31;5188842;28;20022;-73
2023/05/22 01:01:13;;;;;;;7.85;3.60;;;;;;;18.08;89.73;100642.19;5193564;28;20061;-74
2023/05/22 01:03:44;;;;;;;6.90;3.80;;;;;;;18.09;89.26;100642.09;5190491;28;20038;-74
2023/05/22 01:06:17;;;;;;;5.38;3.38;;;;;;;18.17;87.19;100644.25;5191679;28;20308;-74
2023/05/22 01:08:47;;;;;;;5.80;3.75;;;;;;;18.08;88.07;100631.63;5187984;28;20526;-73
2023/05/22 01:11:41;;;;;;;6.05;3.55;;;;;;;18.07;88.43;100632.56;5187963;28;20021;-74
2023/05/22 01:14:11;;;;;;;7.68;3.50;;;;;;;18.10;86.83;100637.66;5190436;28;20069;-73
2023/05/22 01:16:53;;;;;;;4.90;3.43;;;;;;;18.08;87.21;100636.91;5188548;28;20058;-74
2023/05/22 01:19:46;;;;;;;4.72;3.17;;;;;;;18.27;84.30;100638.28;5192770;28;20753;-74
2023/05/22 01:22:25;;;;;;;4.82;3.20;;;;;;;18.24;85.18;100632.31;5190503;28;20028;-74
2023/05/22 01:25:25;;;;;;;8.20;3.45;;;;;;;18.27;83.76;100630.34;5189596;28;20152;-76
2023/05/22 01:28:17;;;;;;;7.05;3.20;;;;;;;18.36;82.93;100632.38;5189773;28;20033;-74
2023/05/22 01:30:52;;;;;;;4.80;3.15;;;;;;;18.34;82.64;100636.91;5193117;28;20088;-74
2023/05/22 01:33:24;;;;;;;4.90;2.92;;;;;;;18.39;82.11;100637.47;5190479;28;20226;-74
2023/05/22 01:35:56;;;;;;;4.97;3.00;;;;;;;18.38;81.75;100641.06;5205633;28;20041;-74
2023/05/22 01:38:28;;;;;;;5.50;3.10;;;;;;;18.58;79.83;100643.25;5189194;28;20494;-73
2023/05/22 01:40:58;;;;;;;5.90;2.80;;;;;;;18.58;80.07;100637.09;5190627;28;20686;-75
2023/05/22 01:43:28;;;;;;;6.00;2.72;;;;;;;18.58;80.67;100634.44;5190369;28;20113;-74
2023/05/22 01:46:00;;;;;;;4.38;2.72;;;;;;;18.52;80.65;100633.03;5193541;28;20403;-74
2023/05/22 01:48:30;;;;;;;5.38;2.90;;;;;;;18.41;81.13;100629.41;5190588;28;20021;-74
2023/05/22 01:51:40;;;;;;;5.22;3.00;;;;;;;18.29;81.90;100631.09;5192417;28;20055;-74
2023/05/22 01:54:21;;;;;;;8.02;2.92;;;;;;;18.24;82.71;100629.66;5192834;28;20037;-74
2023/05/22 01:57:11;;;;;;;5.00;3.05;;;;;;;18.03;84.21;100639.00;5190533;28;20088;-73
2023/05/22 02:00:08;;;;;;;5.68;3.05;;;;;;;17.83;86.29;100635.00;5186818;28;20176;-73
2023/05/22 02:02:47;;;;;;;5.53;3.53;;;;;;;17.67;87.34;100636.09;5191380;28;20053;-72
2023/05/22 02:05:19;;;;;;;4.85;3.25;;;;;;;17.58;87.71;100634.88;5192774;28;20025;-74
2023/05/22 02:07:51;;;;;;;13.95;3.95;;;;;;;17.39;88.93;100629.03;5189606;28;20113;-73
2023/05/22 02:10:24;;;;;;;6.82;4.00;;;;;;;17.23;91.13;100635.31;5193642;28;20075;-73
2023/05/22 02:12:55;;;;;;;6.93;3.65;;;;;;;17.17;90.70;100628.63;5189089;28;20030;-73
2023/05/22 02:15:25;;;;;;;7.22;3.90;;;;;;;17.08;91.09;100620.41;5186554;28;20104;-75
2023/05/22 02:17:58;;;;;;;6.93;3.83;;;;;;;17.14;90.60;100620.06;5186754;28;20049;-73
2023/05/22 02:20:29;;;;;;;5.70;3.85;;;;;;;16.88;93.04;100623.44;5190947;28;20079;-74
2023/05/22 02:22:59;;;;;;;7.10;4.00;;;;;;;16.75;93.28;100609.25;5191025;28;20061;-75
2023/05/22 02:25:29;;;;;;;5.65;3.47;;;;;;;16.86;92.79;100612.97;5184800;28;20057;-74
2023/05/22 02:28:00;;;;;;;10.52;3.10;;;;;;;16.83;93.20;100607.03;5187504;28;20038;-74
2023/05/22 02:30:30;;;;;;;7.07;3.80;;;;;;;16.74;93.00;100610.19;5191532;28;20569;-75
2023/05/22 02:33:04;;;;;;;7.00;3.50;;;;;;;16.73;92.96;100602.41;5187693;28;20026;-74
2023/05/22 02:35:34;;;;;;;5.38;3.65;;;;;;;16.67;93.25;100605.38;5186329;28;20037;-74
2023/05/22 02:38:05;;;;;;;8.68;4.05;;;;;;;16.63;93.52;100602.09;5188766;28;20136;-74
2023/05/22 02:40:35;;;;;;;6.22;3.50;;;;;;;16.70;92.70;100599.94;5183742;28;20048;-75
2023/05/22 02:43:06;;;;;;;6.30;3.33;;;;;;;16.71;92.72;100602.47;5189240;28;20109;-74
2023/05/22 02:45:36;;;;;;;8.05;3.75;;;;;;;16.69;91.93;100606.16;5205522;23;20046;-72
2023/05/22 02:48:06;;;;;;;6.72;3.47;;;;;;;16.64;92.57;100609.06;5162862;28;20108;-73
2023/05/22 02:50:36;;;;;;;6.47;3.47;;;;;;;16.72;91.57;100600.69;5163864;28;20094;-72
2023/05/22 02:53:07;;;;;;;4.40;3.03;;;;;;;16.69;92.09;100609.63;5166476;28;20117;-72
2023/05/22 02:55:37;;;;;;;10.38;3.75;;;;;;;16.57;92.75;100613.00;5165991;28;20285;-72
2023/05/22 02:58:10;;;;;;;8.45;3.60;;;;;;;16.57;92.49;100607.72;5164489;28;20498;-72
2023/05/22 03:00:40;;;;;;;5.50;3.58;;;;;;;16.50;93.00;100614.31;5181335;28;20083;-71
2023/05/22 03:03:10;;;;;;;6.55;3.25;;;;;;;16.48;93.64;100610.06;5165701;28;20022;-71
2023/05/22 03:05:40;;;;;;;7.67;3.47;;;;;;;16.49;93.07;100614.41;5162599;28;20436;-70
2023/05/22 03:08:11;;;;;;;6.85;3.80;;;;;;;16.42;93.30;100613.91;5164611;28;20323;-71
2023/05/22 03:10:41;;;;;;;5.93;3.55;;;;;;;16.50;93.02;100605.53;5164458;28;20076;-71
2023/05/22 03:13:11;;;;;;;6.72;3.40;;;;;;;16.51;92.82;100602.81;5164708;28;20022;-71
2023/05/22 03:15:42;;;;;;;6.37;3.60;;;;;;;16.38;93.79;100607.13;5161291;28;20042;-72
2023/05/22 03:18:12;;;;;;;4.95;3.20;;;;;;;16.40;94.08;100601.75;5162542;28;20287;-72
2023/05/22 03:20:42;;;;;;;5.32;3.15;;;;;;;16.37;93.55;100600.13;5162266;28;20031;-71
2023/05/22 03:23:13;;;;;;;10.23;3.65;;;;;;;16.27;94.18;100601.59;5165238;28;20026;-71
2023/05/22 03:25:43;;;;;;;5.55;3.53;;;;;;;16.28;94.79;100599.78;5163724;28;20037;-70
2023/05/22 03:28:13;;;;;;;7.57;4.07;;;;;;;16.22;95.46;100605.44;5177849;28;20030;-72
2023/05/22 03:30:45;;;;;;;7.55;4.28;;;;;;;16.10;96.12;100603.50;5162998;28;20284;-71
2023/05/22 03:33:15;;;;;;;6.43;3.80;;;;;;;16.10;96.10;100603.50;5165038;28;20021;-72
2023/05/22 03:35:45;;;;;;;5.53;3.65;;;;;;;16.16;94.34;100611.91;5163298;28;20037;-72
2023/05/22 03:38:16;;;;;;;6.18;3.50;;;;;;;16.19;95.24;100600.34;5166039;28;20026;-72
2023/05/22 03:40:46;;;;;;;6.15;3.75;;;;;;;16.05;96.31;100609.03;5159896;28;20045;-72
2023/05/22 03:43:16;;;;;;;6.40;3.70;;;;;;;16.01;96.77;100607.50;5165264;28;20022;-72
2023/05/22 03:45:47;;;;;;;6.88;3.40;;;;;;;16.02;96.27;100603.09;5163937;28;20121;-73
2023/05/22 03:48:17;;;;;;;5.05;3.35;;;;;;;16.02;95.91;100605.75;5163565;28;20096;-72
2023/05/22 03:50:47;;;;;;;6.10;3.80;;;;;;;16.06;96.15;100602.81;5163467;28;20040;-72
2023/05/22 03:53:17;;;;;;;4.97;3.50;;;;;;;16.06;96.64;100605.47;5163724;28;20022;-72
2023/05/22 03:55:48;;;;;;;5.38;3.33;;;;;;;16.18;95.85;100609.19;5157230;28;20218;-70
2023/05/22 03:58:18;;;;;;;5.97;3.58;;;;;;;16.24;96.10;100611.47;5163336;28;20392;-71
2023/05/22 04:00:48;;;;;;;6.03;3.85;;;;;;;16.38;95.57;100598.38;5164641;28;20069;-71
2023/05/22 04:03:19;;;;;;;7.93;3.75;;;;;;;16.55;95.24;100600.84;5165369;28;20035;-72
2023/05/22 04:05:50;;;;;;;7.35;4.03;;;;;;;16.40;95.12;100588.56;5166348;28;20038;-71
2023/05/22 04:08:20;;;;;;;6.22;3.40;;;;;;;16.34;95.82;100592.38;5162618;28;20026;-70
2023/05/22 04:10:53;;;;;;;7.20;4.05;;;;;;;16.32;97.05;100590.75;5163825;28;20037;-71
2023/05/22 04:13:23;;;;;;;6.47;3.67;;;;;;;16.44;95.12;100585.66;5165129;28;20030;-72
2023/05/22 04:15:55;;;;;;;5.03;3.65;;;;;;;16.75;92.97;100587.31;5163114;28;20034;-72
2023/05/22 04:18:25;;;;;;;5.30;3.40;;;;;;;16.74;92.70;100586.44;5164646;28;20062;-72
2023/05/22 04:20:56;;;;;;;6.10;3.72;;;;;;;16.79;91.86;100595.78;5162146;28;20054;-71
2023/05/22 04:23:26;;;;;;;7.25;4.05;;;;;;;16.92;90.94;100587.97;5166229;28;20033;-72
2023/05/22 04:25:57;;;;;;;5.85;3.35;;;;;;;16.95;91.94;100591.28;5158364;28;20201;-72
2023/05/22 04:28:29;;;;;;;6.90;3.70;;;;;;;17.01;89.70;100596.16;5160433;28;20113;-73
2023/05/22 04:30:59;;;;;;;8.27;3.63;;;;;;;17.06;90.69;100594.13;5167498;28;20447;-73
2023/05/22 04:33:33;;;;;;;5.68;3.38;;;;;;;17.14;89.39;100594.47;5165153;28;20042;-73
2023/05/22 04:36:04;;;;;;;4.50;3.05;;;;;;;17.24;90.99;100594.75;5164942;28;20037;-72
2023/05/22 04:38:35;;;;;;;6.55;3.08;;;;;;;17.25;92.45;100592.03;5163154;28;20321;-73
2023/05/22 04:41:07;;;;;;;7.18;3.08;;;;;;;17.47;88.38;100596.84;5162998;28;20060;-71
2023/05/22 04:43:38;;;;;;;6.03;3.10;;;;;;;17.60;87.49;100590.69;5169562;28;20443;-73
2023/05/22 04:46:09;;;;;;;6.38;3.45;;;;;;;17.86;87.15;100589.84;5169789;28;20026;-72
2023/05/22 04:48:40;;;;;;;5.65;3.10;;;;;;;18.19;86.55;100592.09;5170460;28;20049;-73
2023/05/22 04:51:11;;;;;;;4.03;2.88;;;;;;;18.51;84.10;100589.00;5168637;28;20492;-73
2023/05/22 04:53:42;;;;;;;6.10;3.35;;;;;;;18.69;83.41;100595.69;5168788;28;20482;-73
2023/05/22 04:56:12;;;;;;;12.25;3.50;;;;;;;18.72;84.23;100587.53;5163676;28;20280;-74
2023/05/22 04:58:42;;;;;;;6.10;2.55;;;;;;;18.90;81.80;100589.75;5162897;28;20065;-73
2023/05/22 05:01:13;;;;;;;6.72;3.03;;;;;;;18.74;82.85;100594.41;5155514;28;20496;-73
2023/05/22 05:03:43;;;;;;;7.45;3.10;;;;;;;18.97;82.31;100588.38;5167510;28;20034;-73
2023/05/22 05:06:15;;;;;;;5.63;2.80;;;;;;;18.85;83.35;100583.94;5154313;28;20213;-73
2023/05/22 05:08:48;;;;;;;7.40;2.88;;;;;;;18.99;80.74;100586.50;5163783;28;20042;-71
2023/05/22 05:11:18;;;;;;;5.00;2.63;;;;;;;19.15;79.79;100587.13;5155955;28;20504;-73
2023/05/22 05:13:49;;;;;;;5.03;2.80;;;;;;;19.35;79.50;100581.28;5162080;28;20213;-72
2023/05/22 05:16:19;;;;;;;4.95;2.90;;;;;;;19.49;80.31;100580.28;5167383;28;20369;-73
2023/05/22 05:18:50;;;;;;;6.13;2.40;;;;;;;19.75;78.78;100577.44;5164540;28;20511;-70
2023/05/22 05:21:21;;;;;;;7.68;2.50;;;;;;;19.58;78.15;100577.81;5163439;28;20022;-74
2023/05/22 05:23:51;;;;;;;6.30;2.85;;;;;;;19.82;78.49;100578.66;5163258;28;20038;-72
2023/05/22 05:26:22;;;;;;;6.80;2.55;;;;;;;19.76;77.76;100578.28;5152070;28;20481;-72
2023/05/22 05:28:53;;;;;;;3.70;2.58;;;;;;;19.83;77.31;100572.44;5174270;28;20185;-74
2023/05/22 05:31:23;;;;;;;4.38;2.60;;;;;;;19.63;78.09;100577.47;5160952;28;20416;-74
2023/05/22 05:33:56;;;;;;;4.20;2.65;;;;;;;19.64;78.02;100577.34;5165368;28;20113;-73
2023/05/22 05:36:28;;;;;;;4.07;2.83;;;;;;;19.81;77.54;100576.97;5166962;28;20026;-72
2023/05/22 05:38:58;;;;;;;3.85;2.53;;;;;;;19.73;77.19;100582.00;5161904;28;20093;-73
2023/05/22 05:41:28;;;;;;;6.05;2.83;;;;;;;19.78;77.53;100571.91;5162197;28;20033;-73
2023/05/22 05:44:00;;;;;;;3.63;2.38;;;;;;;19.78;77.82;100577.19;5159300;28;20030;-73
2023/05/22 05:46:30;;;;;;;4.47;2.65;;;;;;;19.71;78.55;100577.75;5163132;28;20257;-73
2023/05/22 05:49:08;;;;;;;4.38;2.70;;;;;;;19.87;77.55;100576.53;5162249;28;20036;-73
2023/05/22 05:51:38;;;;;;;4.10;2.63;;;;;;;19.74;77.32;100586.34;5156361;28;20091;-73
2023/05/22 05:54:09;;;;;;;4.83;2.77;;;;;;;19.90;76.88;100575.44;5156210;28;20468;-71
2023/05/22 05:56:40;;;;;;;5.78;2.70;;;;;;;19.84;76.97;100578.56;5165863;28;20281;-73
2023/05/22 05:59:10;;;;;;;4.70;2.60;;;;;;;19.86;76.53;100580.16;5163429;28;21125;-73
2023/05/22 06:01:44;;;;;;;4.63;2.60;;;;;;;19.94;76.99;100571.63;5164067;28;20113;-73
2023/05/22 06:04:15;;;;;;;3.47;2.47;;;;;;;20.14;76.60;100577.16;5160495;28;20297;-73
2023/05/22 06:06:46;;;;;;;4.53;2.58;;;;;;;20.24;76.55;100578.19;5162982;28;20519;-73
2023/05/22 06:09:16;;;;;;;7.72;2.90;;;;;;;20.47;76.17;100574.63;5163084;28;20027;-72
2023/05/22 06:11:47;;;;;;;8.07;2.78;;;;;;;20.33;76.14;100571.34;5165527;28;20057;-71
2023/05/22 06:14:17;;;;;;;4.18;2.35;;;;;;;20.45;75.63;100573.91;5164658;28;20027;-72
2023/05/22 06:16:47;;;;;;;4.80;2.40;;;;;;;20.44;75.20;100564.25;5162896;28;20574;-73
2023/05/22 06:19:18;;;;;;;5.90;2.63;;;;;;;20.43;74.96;100567.88;5158765;28;20041;-73
2023/05/22 06:21:48;;;;;;;5.77;2.43;;;;;;;20.77;75.22;100566.97;5166940;28;20055;-72
2023/05/22 06:24:18;;;;;;;4.47;2.58;;;;;;;21.01;75.76;100578.38;5155667;28;20288;-72
2023/05/22 06:26:48;;;;;;;4.10;2.42;;;;;;;21.00;74.11;100568.69;5165744;28;20034;-72
2023/05/22 06:29:19;;;;;;;6.35;2.70;;;;;;;21.06;75.20;100571.72;5164108;28;20117;-73
2023/05/22 06:31:49;;;;;;;4.70;2.80;;;;;;;20.91;75.98;100567.63;5161214;28;20109;-72
2023/05/22 06:34:21;;;;;;;7.45;2.75;;;;;;;20.91;76.74;100575.59;5164464;28;20021;-73
2023/05/22 06:36:51;;;;;;;4.70;2.60;;;;;;;20.84;76.29;100571.72;5164702;28;20033;-74
2023/05/22 06:39:21;;;;;;;5.28;2.90;;;;;;;20.77;76.35;100569.63;5163862;28;20033;-73
2023/05/22 06:41:51;;;;;;;6.10;2.80;;;;;;;20.95;75.51;100573.53;5166133;28;20054;-73
2023/05/22 06:44:24;;;;;;;5.40;2.70;;;;;;;21.08;75.51;100577.78;5165249;28;20297;-74
2023/05/22 06:46:55;;;;;;;5.60;2.78;;;;;;;21.26;73.90;100567.50;5169404;28;20770;-73
2023/05/22 06:49:25;;;;;;;6.72;2.58;;;;;;;21.23;75.70;100575.72;5166855;28;20081;-73
2023/05/22 06:51:55;;;;;;;6.32;2.53;;;;;;;21.31;73.63;100579.47;5165846;28;20113;-72
2023/05/22 06:54:28;;;;;;;4.00;2.67;;;;;;;21.20;73.81;100575.97;5163862;28;20113;-74
2023/05/22 06:56:58;;;;;;;4.82;2.70;;;;;;;21.25;74.29;100579.13;5162591;28;20038;-74
2023/05/22 06:59:29;;;;;;;9.18;3.00;;;;;;;21.38;73.73;100585.16;5166587;28;20033;-73
2023/05/22 07:01:59;;;;;;;5.30;2.95;;;;;;;21.18;74.45;100577.88;5161489;28;20084;-73
2023/05/22 07:04:30;;;;;;;4.10;2.70;;;;;;;21.15;73.92;100575.47;5164912;28;20464;-74
2023/05/22 07:07:00;;;;;;;5.88;3.40;;;;;;;21.14;74.76;100592.41;5166314;28;20026;-73
2023/05/22 07:09:30;;;;;;;5.47;2.85;;;;;;;21.46;74.71;100574.72;5164031;28;20469;-73
2023/05/22 07:12:01;;;;;;;8.55;3.08;;;;;;;21.66;73.03;100581.97;5166799;28;20038;-73
2023/05/22 07:14:31;;;;;;;7.53;3.10;;;;;;;21.47;73.16;100581.75;5168286;28;20025;-73
2023/05/22 07:17:01;;;;;;;7.00;2.80;;;;;;;21.50;73.97;100582.34;5163082;28;20229;-73
2023/05/22 07:19:31;;;;;;;5.23;2.77;;;;;;;21.78;73.29;100571.19;5162439;28;20273;-73
2023/05/22 07:22:02;;;;;;;4.30;2.60;;;;;;;22.22;73.12;100575.53;5165793;28;20301;-73
2023/05/22 07:24:32;;;;;;;4.30;2.58;;;;;;;22.24;72.40;100571.75;5164814;28;20715;-73
2023/05/22 07:27:03;;;;;;;7.05;2.60;;;;;;;22.73;71.66;100576.50;5167156;28;20149;-73
2023/05/22 07:29:34;;;;;;;5.65;2.63;;;;;;;22.93;71.57;100568.47;5167325;28;20527;-73
2023/05/22 07:32:04;;;;;;;3.90;2.67;;;;;;;23.02;69.78;100568.50;5162267;28;20045;-73
2023/05/22 07:34:35;;;;;;;6.88;3.25;;;;;;;22.93;71.56;100565.78;5166219;28;20076;-74
2023/05/22 07:37:07;;;;;;;4.30;2.63;;;;;;;23.50;69.10;100563.41;5162517;28;20361;-73
2023/05/22 07:39:38;;;;;;;5.70;2.83;;;;;;;23.86;70.08;100560.13;5164650;28;20037;-74
2023/05/22 07:42:08;;;;;;;4.03;2.70;;;;;;;24.29;68.56;100555.22;5164842;28;20480;-74
2023/05/22 07:44:38;;;;;;;6.05;2.88;;;;;;;23.58;70.52;100558.22;5162825;28;20307;-73
2023/05/22 07:47:09;;;;;;;4.07;2.40;;;;;;;23.67;69.19;100555.56;5165998;28;20499;-73
2023/05/22 07:49:39;;;;;;;6.90;2.50;;;;;;;23.67;70.32;100560.91;5158195;28;20205;-73
2023/05/22 07:52:09;;;;;;;3.83;2.53;;;;;;;23.36;72.02;100566.44;5164423;28;20302;-73
2023/05/22 07:54:39;;;;;;;3.97;2.77;;;;;;;23.60;71.62;100565.13;5161676;28;20273;-74
2023/05/22 07:57:11;;;;;;;4.40;2.85;;;;;;;23.63;71.40;100562.16;5166274;28;20380;-72
2023/05/22 07:59:42;;;;;;;3.83;2.63;;;;;;;23.84;72.47;100560.25;5167737;28;20104;-73
2023/05/22 08:02:13;;;;;;;4.10;2.85;;;;;;;24.35;71.44;100550.16;5163907;28;20058;-74
2023/05/22 08:04:47;;;;;;;3.65;2.25;;;;;;;24.99;68.78;100553.84;5164750;28;20654;-74
2023/05/22 08:07:17;;;;;;;5.07;2.78;;;;;;;24.62;68.73;100555.63;5162326;28;20123;-74
2023/05/22 08:09:47;;;;;;;6.07;2.85;;;;;;;24.87;70.06;100563.88;5165108;28;20258;-74
2023/05/22 08:12:17;;;;;;;5.70;2.67;;;;;;;25.20;68.44;100560.69;5164784;28;20053;-74
2023/05/22 08:14:48;;;;;;;3.90;2.60;;;;;;;25.91;66.15;100553.66;5156683;28;20277;-73
2023/05/22 08:17:18;;;;;;;3.97;2.70;;;;;;;27.17;63.26;100547.66;5166151;28;20288;-74
2023/05/22 08:19:48;;;;;;;4.28;2.67;;;;;;;27.76;63.13;100549.44;5169862;28;20300;-73
2023/05/22 08:22:19;;;;;;;3.87;2.40;;;;;;;28.87;60.68;100543.25;5164463;28;20069;-74
2023/05/22 08:24:49;;;;;;;5.60;2.40;;;;;;;28.43;60.03;100549.16;5165791;28;20779;-74
2023/05/22 08:27:19;;;;;;;10.07;2.72;;;;;;;27.77;62.00;100551.13;5171521;28;20284;-74
2023/05/22 08:29:50;;;;;;;4.95;2.92;;;;;;;27.70;62.30;100540.16;5169440;28;20038;-72
2023/05/22 08:32:21;;;;;;;4.78;3.00;;;;;;;26.53;65.37;100553.59;5168764;28;20395;-73
2023/05/22 08:34:51;;;;;;;5.37;2.50;;;;;;;25.79;67.06;100552.16;5166178;28;20022;-73
2023/05/22 08:37:21;;;;;;;7.17;2.60;;;;;;;26.76;62.92;100543.03;5164753;28;20656;-73
2023/05/22 08:39:52;;;;;;;4.53;2.53;;;;;;;27.46;61.46;100537.38;5164019;28;20309;-73
2023/05/22 08:42:22;;;;;;;4.80;2.67;;;;;;;27.72;62.16;100532.78;5166663;28;20280;-73
2023/05/22 08:44:54;;;;;;;7.13;3.03;;;;;;;27.56;62.94;100531.84;5169538;28;20161;-74
2023/05/22 08:47:25;;;;;;;4.30;2.50;;;;;;;27.61;61.95;100529.53;5188764;23;20043;-73
2023/05/22 08:49:57;;;;;;;4.45;2.47;;;;;;;27.96;62.07;100532.81;5171662;28;20034;-74
2023/05/22 08:52:33;;;;;;;4.43;2.45;;;;;;;27.67;62.35;100529.72;5171598;28;20053;-75
2023/05/22 08:55:05;;;;;;;3.38;2.20;;;;;;;27.60;63.14;100527.88;5168160;28;20033;-75
2023/05/22 08:57:35;;;;;;;5.45;2.80;;;;;;;28.20;62.17;100521.25;5188077;28;20026;-75
2023/05/22 09:00:06;;;;;;;3.08;2.28;;;;;;;29.47;60.28;100522.88;5169918;28;20036;-75
2023/05/22 09:02:38;;;;;;;4.15;2.42;;;;;;;30.17;58.26;100511.00;5172273;28;20041;-75
2023/05/22 09:05:08;;;;;;;4.97;2.40;;;;;;;29.57;59.34;100510.03;5171105;28;20527;-74
2023/05/22 09:07:39;;;;;;;5.65;2.33;;;;;;;30.36;57.11;100513.19;5164732;28;20125;-74
2023/05/22 09:10:10;;;;;;;3.95;2.50;;;;;;;29.09;60.68;100521.00;5167712;28;20934;-75
2023/05/22 09:13:08;;;;;;;4.63;2.60;;;;;;;29.28;59.11;100512.50;5168578;28;20522;-75
2023/05/22 09:15:38;;;;;;;6.63;2.45;;;;;;;28.88;58.86;100518.03;5170568;28;20031;-74
2023/05/22 09:18:08;;;;;;;3.70;2.30;;;;;;;29.47;58.48;100515.66;5166071;28;20576;-74
2023/05/22 09:20:39;;;;;;;5.73;2.60;;;;;;;29.42;57.70;100511.78;5168632;28;20491;-75
2023/05/22 09:23:16;;;;;;;6.85;2.72;;;;;;;29.56;59.21;100511.88;5171815;28;20284;-75
2023/05/22 09:25:46;;;;;;;3.20;2.13;;;;;;;29.65;58.24;100507.28;5169413;28;20034;-73
2023/05/22 09:28:17;;;;;;;6.40;2.70;;;;;;;30.37;59.29;100504.91;5165988;28;20052;-75
2023/05/22 09:30:49;;;;;;;4.93;2.50;;;;;;;29.28;58.97;100513.38;5172265;28;20062;-75
2023/05/22 09:33:21;;;;;;;6.05;2.53;;;;;;;29.38;57.36;100510.47;5171976;28;20786;-75
2023/05/22 09:35:53;;;;;;;6.28;2.65;;;;;;;28.94;59.56;100511.97;5170986;28;20306;-74
2023/05/22 09:38:30;;;;;;;5.35;2.58;;;;;;;29.32;60.64;100508.44;5169840;28;20120;-75
2023/05/22 09:41:00;;;;;;;4.68;2.50;;;;;;;28.81;61.29;100500.84;5166391;28;20385;-74
2023/05/22 09:43:32;;;;;;;3.77;2.70;;;;;;;28.59;61.01;100504.28;5170675;28;20101;-75
2023/05/22 09:46:03;;;;;;;4.68;2.78;;;;;;;28.37;64.70;100496.06;5170243;28;20277;-75
2023/05/22 09:48:36;;;;;;;4.03;2.80;;;;;;;27.65;62.34;100502.16;5170897;28;20030;-75
2023/05/22 09:51:09;;;;;;;5.15;2.88;;;;;;;27.46;63.37;100507.81;5170586;28;20026;-74
2023/05/22 09:53:42;;;;;;;7.82;3.03;;;;;;;27.36;63.25;100496.41;5169448;28;20034;-74
2023/05/22 09:56:13;;;;;;;5.18;2.60;;;;;;;27.15;64.59;100501.38;5170510;28;20057;-74
2023/05/22 09:58:46;;;;;;;4.07;2.75;;;;;;;26.87;65.49;100499.84;5172346;28;20041;-75
2023/05/22 10:01:18;;;;;;;7.07;2.67;;;;;;;26.23;67.86;100503.91;5173514;28;20026;-74
2023/05/22 10:03:53;;;;;;;3.72;2.97;;;;;;;26.46;68.92;100502.41;5172813;28;20029;-74
2023/05/22 10:06:25;;;;;;;4.43;3.00;;;;;;;26.60;68.52;100509.06;5175298;28;20026;-75
2023/05/22 10:09:05;;;;;;;4.10;2.80;;;;;;;26.08;69.21;100501.91;5167906;28;20143;-74
2023/05/22 10:11:36;;;;;;;4.55;3.00;;;;;;;26.11;67.78;100497.09;5171215;28;20495;-74
2023/05/22 10:14:08;;;;;;;6.15;3.30;;;;;;;25.78;68.73;100504.94;5172082;28;20490;-74
2023/05/22 10:16:40;;;;;;;4.35;2.90;;;;;;;26.36;68.94;100495.47;5168123;28;20515;-74
2023/05/22 10:19:11;;;;;;;7.20;2.85;;;;;;;26.69;66.91;100494.72;5169324;28;20041;-74
2023/05/22 10:21:42;;;;;;;7.93;3.00;;;;;;;26.76;67.18;100492.06;5170702;28;20065;-75
2023/05/22 10:24:13;;;;;;;4.63;2.88;;;;;;;26.65;66.33;100486.13;5173849;28;20065;-74
2023/05/22 10:26:43;;;;;;;4.43;2.95;;;;;;;26.57;69.02;100485.25;5171310;28;20315;-75
2023/05/22 10:29:21;;;;;;;5.55;2.85;;;;;;;26.83;69.72;100478.84;5173348;28;20056;-74
2023/05/22 10:32:31;;;;;;;3.92;2.70;;;;;;;26.91;67.71;100481.59;5170815;28;20066;-76
2023/05/22 10:35:16;;;;;;;8.68;3.00;;;;;;;26.79;65.31;100475.63;5156415;28;20045;-75
2023/05/22 10:38:00;;;;;;;6.97;3.23;;;;;;;26.60;64.72;100484.91;5171544;28;20499;-75
2023/05/22 10:40:32;;;;;;;4.88;2.90;;;;;;;26.86;63.98;100479.38;5168518;28;20026;-75
2023/05/22 10:43:03;;;;;;;5.55;3.42;;;;;;;26.20;65.63;100477.41;5170925;28;20053;-75
2023/05/22 10:45:33;;;;;;;5.40;2.95;;;;;;;26.33;65.92;100471.66;5168105;28;20170;-75
2023/05/22 10:48:05;;;;;;;6.65;3.42;;;;;;;25.97;66.21;100476.22;5172936;28;20026;-75
2023/05/22 10:50:36;;;;;;;4.93;2.90;;;;;;;25.63;65.88;100475.19;5172413;28;20034;-74
2023/05/22 10:53:22;;;;;;;10.23;4.22;;;;;;;25.33;67.46;100472.03;5172476;28;20052;-75
2023/05/22 10:55:57;;;;;;;5.70;3.55;;;;;;;25.82;67.26;100468.84;5167494;28;20117;-74
2023/05/22 10:58:36;;;;;;;;;;;;;;;26.02;66.58;100462.34;5172128;28;20053;-75
2023/05/22 11:01:11;;;;;;;6.20;3.03;;;;;;;26.32;65.73;100470.78;5173662;28;19913;-75
2023/05/22 11:03:58;;;;;;;5.15;2.92;;;;;;;26.33;65.51;100464.44;5163687;28;20049;-75
2023/05/22 11:06:36;;;;;;;6.70;2.90;;;;;;;26.37;65.24;100464.97;5167023;28;20516;-75
2023/05/22 11:09:20;;;;;;;7.07;2.90;;;;;;;26.00;66.20;100456.31;5166832;28;20038;-75
2023/05/22 11:12:29;;;;;;;5.10;3.13;;;;;;;25.88;66.71;100450.38;5168522;28;20049;-74
2023/05/22 11:15:10;;;;;;;5.80;2.88;;;;;;;26.08;66.67;100446.50;5166380;28;20046;-75
2023/05/22 11:17:50;;;;;;;5.85;2.88;;;;;;;26.37;66.70;100454.25;5165781;28;20182;-74
2023/05/22 11:20:21;;;;;;;5.43;3.20;;;;;;;26.51;65.79;100445.66;5167096;28;20065;-75
2023/05/22 11:22:57;;;;;;;5.50;3.10;;;;;;;26.70;65.08;100440.88;5167139;28;20181;-75
2023/05/22 11:25:28;;;;;;;4.43;2.95;;;;;;;26.75;65.28;100441.28;5163875;28;20026;-74
2023/05/22 11:28:02;;;;;;;5.60;3.10;;;;;;;26.49;64.49;100447.66;5155050;28;20472;-75
2023/05/22 11:30:33;;;;;;;9.52;3.35;;;;;;;26.48;66.17;100441.44;5161964;28;20038;-75
2023/05/22 11:33:05;;;;;;;3.92;2.70;;;;;;;26.49;66.13;100439.63;5164653;28;20063;-75
2023/05/22 11:35:36;;;;;;;5.80;2.92;;;;;;;26.58;66.03;100434.13;5163902;28;20034;-74
2023/05/22 11:38:07;;;;;;;4.57;2.92;;;;;;;26.52;65.40;100425.88;5167766;28;20299;-75
2023/05/22 11:40:37;;;;;;;4.18;3.05;;;;;;;26.70;65.28;100421.28;5157946;28;20041;-75
2023/05/22 11:43:08;;;;;;;5.33;3.00;;;;;;;26.79;65.53;100421.97;5168111;28;20025;-75
2023/05/22 11:45:38;;;;;;;4.93;2.90;;;;;;;26.31;64.54;100430.75;5162827;28;20285;-74
2023/05/22 11:48:10;;;;;;;4.75;2.75;;;;;;;26.53;65.01;100423.03;5164022;28;20775;-75